sensor_id;sensor_type;location;lat;lon;timestamp;P1;durP1;ratioP1;P2;durP2;ratioP2
51995;SDS011;38010;53.264;6.592;2023-04-06T00:02:06;1.27;;;0.80;;
51995;SDS011;38010;53.264;6.592;2023-04-06T00:04:32;0.95;;;0.80;;
51995;SDS011;38010;53.264;6.592;2023-04-06T00:06:58;1.20;;;0.80;;
51995;SDS011;38010;53.264;6.592;2023-04-06T00:09:23;0.98;;;0.88;;
51995;SDS011;38010;53.264;6.592;2023-04-06T00:11:49;0.68;;;0.65;;
51995;SDS011;38010;53.264;6.592;2023-04-06T00:14:15;0.70;;;0.70;;
51995;SDS011;38010;53.264;6.592;2023-04-06T00:16:42;0.85;;;0.70;;
51995;SDS011;38010;53.264;6.592;2023-04-06T00:19:08;1.13;;;1.00;;
51995;SDS011;38010;53.264;6.592;2023-04-06T00:21:34;0.98;;;0.85;;
51995;SDS011;38010;53.264;6.592;2023-04-06T00:23:59;0.85;;;0.80;;
51995;SDS011;38010;53.264;6.592;2023-04-06T00:26:25;0.98;;;0.70;;
51995;SDS011;38010;53.264;6.592;2023-04-06T00:28:51;0.82;;;0.70;;
51995;SDS011;38010;53.264;6.592;2023-04-06T00:31:17;0.60;;;0.60;;
51995;SDS011;38010;53.264;6.592;2023-04-06T00:33:43;1.08;;;0.90;;
51995;SDS011;38010;53.264;6.592;2023-04-06T00:36:08;1.00;;;0.77;;
51995;SDS011;38010;53.264;6.592;2023-04-06T00:38:34;1.10;;;0.80;;
51995;SDS011;38010;53.264;6.592;2023-04-06T00:41:00;1.20;;;0.70;;
51995;SDS011;38010;53.264;6.592;2023-04-06T00:43:26;0.70;;;0.70;;
51995;SDS011;38010;53.264;6.592;2023-04-06T00:45:52;0.98;;;0.70;;
51995;SDS011;38010;53.264;6.592;2023-04-06T00:48:18;1.13;;;0.70;;
51995;SDS011;38010;53.264;6.592;2023-04-06T00:50:43;1.42;;;0.77;;
51995;SDS011;38010;53.264;6.592;2023-04-06T00:53:09;1.02;;;0.80;;
51995;SDS011;38010;53.264;6.592;2023-04-06T00:55:35;1.20;;;0.88;;
51995;SDS011;38010;53.264;6.592;2023-04-06T00:58:01;0.65;;;0.60;;
51995;SDS011;38010;53.264;6.592;2023-04-06T01:00:27;0.77;;;0.70;;
51995;SDS011;38010;53.264;6.592;2023-04-06T01:02:53;0.93;;;0.75;;
51995;SDS011;38010;53.264;6.592;2023-04-06T01:05:19;1.13;;;0.95;;
51995;SDS011;38010;53.264;6.592;2023-04-06T01:07:45;0.80;;;0.73;;
51995;SDS011;38010;53.264;6.592;2023-04-06T01:10:11;1.30;;;0.80;;
51995;SDS011;38010;53.264;6.592;2023-04-06T01:12:47;1.83;;;0.80;;
51995;SDS011;38010;53.264;6.592;2023-04-06T01:15:13;2.05;;;0.80;;
51995;SDS011;38010;53.264;6.592;2023-04-06T01:17:40;0.95;;;0.80;;
51995;SDS011;38010;53.264;6.592;2023-04-06T01:20:06;0.70;;;0.65;;
51995;SDS011;38010;53.264;6.592;2023-04-06T01:22:32;1.42;;;0.80;;
51995;SDS011;38010;53.264;6.592;2023-04-06T01:24:58;1.00;;;0.80;;
51995;SDS011;38010;53.264;6.592;2023-04-06T01:27:23;1.00;;;0.90;;
51995;SDS011;38010;53.264;6.592;2023-04-06T01:29:51;1.15;;;0.80;;
51995;SDS011;38010;53.264;6.592;2023-04-06T01:32:17;1.23;;;0.82;;
51995;SDS011;38010;53.264;6.592;2023-04-06T01:34:43;1.40;;;0.85;;
51995;SDS011;38010;53.264;6.592;2023-04-06T01:37:08;1.08;;;0.70;;
51995;SDS011;38010;53.264;6.592;2023-04-06T01:39:34;0.90;;;0.75;;
51995;SDS011;38010;53.264;6.592;2023-04-06T01:42:00;0.98;;;0.88;;
51995;SDS011;38010;53.264;6.592;2023-04-06T01:44:25;0.90;;;0.73;;
51995;SDS011;38010;53.264;6.592;2023-04-06T01:46:51;1.42;;;0.90;;
51995;SDS011;38010;53.264;6.592;2023-04-06T01:49:17;0.68;;;0.60;;
51995;SDS011;38010;53.264;6.592;2023-04-06T01:51:43;0.82;;;0.70;;
51995;SDS011;38010;53.264;6.592;2023-04-06T01:54:09;1.10;;;0.90;;
51995;SDS011;38010;53.264;6.592;2023-04-06T01:56:34;0.60;;;0.60;;
51995;SDS011;38010;53.264;6.592;2023-04-06T01:59:00;0.80;;;0.80;;
51995;SDS011;38010;53.264;6.592;2023-04-06T02:01:26;1.00;;;0.90;;
51995;SDS011;38010;53.264;6.592;2023-04-06T02:03:51;1.35;;;0.90;;
51995;SDS011;38010;53.264;6.592;2023-04-06T02:06:17;0.98;;;0.80;;
51995;SDS011;38010;53.264;6.592;2023-04-06T02:08:43;1.08;;;0.90;;
51995;SDS011;38010;53.264;6.592;2023-04-06T02:11:08;0.98;;;0.80;;
51995;SDS011;38010;53.264;6.592;2023-04-06T02:13:34;1.15;;;0.80;;
51995;SDS011;38010;53.264;6.592;2023-04-06T02:16:00;0.93;;;0.82;;
51995;SDS011;38010;53.264;6.592;2023-04-06T02:18:27;0.90;;;0.90;;
51995;SDS011;38010;53.264;6.592;2023-04-06T02:20:55;0.90;;;0.70;;
51995;SDS011;38010;53.264;6.592;2023-04-06T02:23:20;0.77;;;0.75;;
51995;SDS011;38010;53.264;6.592;2023-04-06T02:25:46;1.02;;;0.82;;
51995;SDS011;38010;53.264;6.592;2023-04-06T02:28:12;0.80;;;0.80;;
51995;SDS011;38010;53.264;6.592;2023-04-06T02:30:37;1.40;;;1.00;;
51995;SDS011;38010;53.264;6.592;2023-04-06T02:33:04;1.30;;;0.80;;
51995;SDS011;38010;53.264;6.592;2023-04-06T02:35:30;0.70;;;0.70;;
51995;SDS011;38010;53.264;6.592;2023-04-06T02:37:56;1.25;;;0.82;;
51995;SDS011;38010;53.264;6.592;2023-04-06T02:40:22;0.93;;;0.70;;
51995;SDS011;38010;53.264;6.592;2023-04-06T02:42:47;1.25;;;0.80;;
51995;SDS011;38010;53.264;6.592;2023-04-06T02:45:13;1.38;;;0.93;;
51995;SDS011;38010;53.264;6.592;2023-04-06T02:47:39;1.05;;;0.90;;
51995;SDS011;38010;53.264;6.592;2023-04-06T02:50:05;1.60;;;1.00;;
51995;SDS011;38010;53.264;6.592;2023-04-06T02:52:31;0.70;;;0.70;;
51995;SDS011;38010;53.264;6.592;2023-04-06T02:54:57;1.63;;;1.00;;
51995;SDS011;38010;53.264;6.592;2023-04-06T02:57:23;1.10;;;1.00;;
51995;SDS011;38010;53.264;6.592;2023-04-06T02:59:48;1.38;;;0.85;;
51995;SDS011;38010;53.264;6.592;2023-04-06T03:02:14;1.15;;;0.90;;
51995;SDS011;38010;53.264;6.592;2023-04-06T03:04:40;1.80;;;1.00;;
51995;SDS011;38010;53.264;6.592;2023-04-06T03:07:06;1.42;;;1.10;;
51995;SDS011;38010;53.264;6.592;2023-04-06T03:09:32;1.23;;;0.90;;
51995;SDS011;38010;53.264;6.592;2023-04-06T03:11:58;1.10;;;1.00;;
51995;SDS011;38010;53.264;6.592;2023-04-06T03:14:25;1.15;;;0.85;;
51995;SDS011;38010;53.264;6.592;2023-04-06T03:16:50;1.05;;;0.80;;
51995;SDS011;38010;53.264;6.592;2023-04-06T03:19:16;0.73;;;0.70;;
51995;SDS011;38010;53.264;6.592;2023-04-06T03:21:42;1.13;;;0.90;;
51995;SDS011;38010;53.264;6.592;2023-04-06T03:24:07;0.82;;;0.82;;
51995;SDS011;38010;53.264;6.592;2023-04-06T03:26:33;1.05;;;0.90;;
51995;SDS011;38010;53.264;6.592;2023-04-06T03:28:59;1.67;;;1.20;;
51995;SDS011;38010;53.264;6.592;2023-04-06T03:31:25;1.15;;;0.90;;
51995;SDS011;38010;53.264;6.592;2023-04-06T03:33:51;0.90;;;0.88;;
51995;SDS011;38010;53.264;6.592;2023-04-06T03:36:17;1.02;;;0.90;;
51995;SDS011;38010;53.264;6.592;2023-04-06T03:38:43;1.10;;;1.00;;
51995;SDS011;38010;53.264;6.592;2023-04-06T03:41:09;1.20;;;1.10;;
51995;SDS011;38010;53.264;6.592;2023-04-06T03:43:35;1.92;;;1.05;;
51995;SDS011;38010;53.264;6.592;2023-04-06T03:46:01;1.90;;;1.10;;
51995;SDS011;38010;53.264;6.592;2023-04-06T03:48:27;1.33;;;0.90;;
51995;SDS011;38010;53.264;6.592;2023-04-06T03:50:52;1.13;;;1.00;;
51995;SDS011;38010;53.264;6.592;2023-04-06T03:53:18;1.10;;;1.00;;
51995;SDS011;38010;53.264;6.592;2023-04-06T03:55:44;1.42;;;0.90;;
51995;SDS011;38010;53.264;6.592;2023-04-06T03:58:09;1.40;;;0.93;;
51995;SDS011;38010;53.264;6.592;2023-04-06T04:00:35;0.95;;;0.88;;
51995;SDS011;38010;53.264;6.592;2023-04-06T04:03:01;2.08;;;1.00;;
51995;SDS011;38010;53.264;6.592;2023-04-06T04:05:27;0.98;;;0.70;;
51995;SDS011;38010;53.264;6.592;2023-04-06T04:07:53;1.10;;;1.00;;
51995;SDS011;38010;53.264;6.592;2023-04-06T04:10:19;1.30;;;1.00;;
51995;SDS011;38010;53.264;6.592;2023-04-06T04:12:44;1.40;;;1.10;;
51995;SDS011;38010;53.264;6.592;2023-04-06T04:15:10;1.30;;;1.00;;
51995;SDS011;38010;53.264;6.592;2023-04-06T04:17:36;1.35;;;1.05;;
51995;SDS011;38010;53.264;6.592;2023-04-06T04:20:02;1.48;;;1.20;;
51995;SDS011;38010;53.264;6.592;2023-04-06T04:22:27;2.15;;;1.20;;
51995;SDS011;38010;53.264;6.592;2023-04-06T04:24:53;0.90;;;0.90;;
51995;SDS011;38010;53.264;6.592;2023-04-06T04:27:19;1.30;;;1.00;;
51995;SDS011;38010;53.264;6.592;2023-04-06T04:29:45;1.20;;;1.02;;
51995;SDS011;38010;53.264;6.592;2023-04-06T04:32:11;1.35;;;1.00;;
51995;SDS011;38010;53.264;6.592;2023-04-06T04:34:37;1.40;;;1.30;;
51995;SDS011;38010;53.264;6.592;2023-04-06T04:37:05;1.40;;;1.20;;
51995;SDS011;38010;53.264;6.592;2023-04-06T04:39:31;1.23;;;0.98;;
51995;SDS011;38010;53.264;6.592;2023-04-06T04:41:57;1.50;;;1.17;;
51995;SDS011;38010;53.264;6.592;2023-04-06T04:44:23;1.23;;;1.10;;
51995;SDS011;38010;53.264;6.592;2023-04-06T04:46:49;1.05;;;0.95;;
51995;SDS011;38010;53.264;6.592;2023-04-06T04:49:14;0.80;;;0.80;;
51995;SDS011;38010;53.264;6.592;2023-04-06T04:51:40;1.55;;;1.02;;
51995;SDS011;38010;53.264;6.592;2023-04-06T04:54:06;1.27;;;0.95;;
51995;SDS011;38010;53.264;6.592;2023-04-06T04:56:32;1.10;;;0.90;;
51995;SDS011;38010;53.264;6.592;2023-04-06T04:58:58;1.45;;;0.90;;
51995;SDS011;38010;53.264;6.592;2023-04-06T05:01:23;1.30;;;1.20;;
51995;SDS011;38010;53.264;6.592;2023-04-06T05:03:50;1.17;;;0.98;;
51995;SDS011;38010;53.264;6.592;2023-04-06T05:06:15;1.13;;;1.02;;
51995;SDS011;38010;53.264;6.592;2023-04-06T05:08:41;1.02;;;0.90;;
51995;SDS011;38010;53.264;6.592;2023-04-06T05:11:08;1.10;;;0.90;;
51995;SDS011;38010;53.264;6.592;2023-04-06T05:13:34;1.27;;;0.90;;
51995;SDS011;38010;53.264;6.592;2023-04-06T05:16:00;1.27;;;1.00;;
51995;SDS011;38010;53.264;6.592;2023-04-06T05:18:26;1.65;;;0.95;;
51995;SDS011;38010;53.264;6.592;2023-04-06T05:20:51;1.20;;;0.90;;
51995;SDS011;38010;53.264;6.592;2023-04-06T05:23:17;0.98;;;0.90;;
51995;SDS011;38010;53.264;6.592;2023-04-06T05:25:43;1.15;;;1.05;;
51995;SDS011;38010;53.264;6.592;2023-04-06T05:28:09;1.05;;;0.95;;
51995;SDS011;38010;53.264;6.592;2023-04-06T05:30:35;1.20;;;1.00;;
51995;SDS011;38010;53.264;6.592;2023-04-06T05:33:00;1.35;;;0.93;;
51995;SDS011;38010;53.264;6.592;2023-04-06T05:35:27;1.30;;;0.90;;
51995;SDS011;38010;53.264;6.592;2023-04-06T05:37:53;1.17;;;0.80;;
51995;SDS011;38010;53.264;6.592;2023-04-06T05:40:19;1.23;;;1.00;;
51995;SDS011;38010;53.264;6.592;2023-04-06T05:42:45;1.00;;;0.90;;
51995;SDS011;38010;53.264;6.592;2023-04-06T05:45:12;1.02;;;0.93;;
51995;SDS011;38010;53.264;6.592;2023-04-06T05:47:42;1.92;;;1.48;;
51995;SDS011;38010;53.264;6.592;2023-04-06T05:50:11;1.67;;;0.98;;
51995;SDS011;38010;53.264;6.592;2023-04-06T05:52:37;1.58;;;0.90;;
51995;SDS011;38010;53.264;6.592;2023-04-06T05:55:03;1.75;;;1.00;;
51995;SDS011;38010;53.264;6.592;2023-04-06T05:57:30;1.50;;;1.00;;
51995;SDS011;38010;53.264;6.592;2023-04-06T05:59:55;1.85;;;1.00;;
51995;SDS011;38010;53.264;6.592;2023-04-06T06:02:21;1.35;;;1.20;;
51995;SDS011;38010;53.264;6.592;2023-04-06T06:04:47;1.40;;;1.20;;
51995;SDS011;38010;53.264;6.592;2023-04-06T06:07:13;2.10;;;1.13;;
51995;SDS011;38010;53.264;6.592;2023-04-06T06:09:39;1.63;;;1.05;;
51995;SDS011;38010;53.264;6.592;2023-04-06T06:12:05;2.72;;;1.10;;
51995;SDS011;38010;53.264;6.592;2023-04-06T06:14:32;3.25;;;1.40;;
51995;SDS011;38010;53.264;6.592;2023-04-06T06:16:58;1.50;;;1.13;;
51995;SDS011;38010;53.264;6.592;2023-04-06T06:19:24;1.63;;;1.25;;
51995;SDS011;38010;53.264;6.592;2023-04-06T06:21:50;2.28;;;1.00;;
51995;SDS011;38010;53.264;6.592;2023-04-06T06:24:15;3.90;;;1.30;;
51995;SDS011;38010;53.264;6.592;2023-04-06T06:26:41;1.38;;;1.08;;
51995;SDS011;38010;53.264;6.592;2023-04-06T06:29:08;2.08;;;1.00;;
51995;SDS011;38010;53.264;6.592;2023-04-06T06:31:34;1.65;;;0.95;;
51995;SDS011;38010;53.264;6.592;2023-04-06T06:34:00;1.60;;;1.00;;
51995;SDS011;38010;53.264;6.592;2023-04-06T06:36:27;1.58;;;1.23;;
51995;SDS011;38010;53.264;6.592;2023-04-06T06:38:53;1.95;;;0.80;;
51995;SDS011;38010;53.264;6.592;2023-04-06T06:41:18;1.52;;;0.88;;
51995;SDS011;38010;53.264;6.592;2023-04-06T06:43:44;1.33;;;1.17;;
51995;SDS011;38010;53.264;6.592;2023-04-06T06:46:10;0.95;;;0.85;;
51995;SDS011;38010;53.264;6.592;2023-04-06T06:48:36;0.82;;;0.80;;
51995;SDS011;38010;53.264;6.592;2023-04-06T06:51:01;1.80;;;0.90;;
51995;SDS011;38010;53.264;6.592;2023-04-06T06:53:27;1.17;;;0.77;;
51995;SDS011;38010;53.264;6.592;2023-04-06T06:55:53;1.70;;;1.05;;
51995;SDS011;38010;53.264;6.592;2023-04-06T06:58:19;0.95;;;0.90;;
51995;SDS011;38010;53.264;6.592;2023-04-06T07:00:47;1.95;;;0.90;;
51995;SDS011;38010;53.264;6.592;2023-04-06T07:03:13;1.55;;;0.90;;
51995;SDS011;38010;53.264;6.592;2023-04-06T07:05:39;1.17;;;0.80;;
51995;SDS011;38010;53.264;6.592;2023-04-06T07:08:14;0.82;;;0.70;;
51995;SDS011;38010;53.264;6.592;2023-04-06T07:10:40;1.27;;;1.13;;
51995;SDS011;38010;53.264;6.592;2023-04-06T07:13:05;1.10;;;0.80;;
51995;SDS011;38010;53.264;6.592;2023-04-06T07:15:31;1.08;;;0.85;;
51995;SDS011;38010;53.264;6.592;2023-04-06T07:17:57;1.08;;;0.93;;
51995;SDS011;38010;53.264;6.592;2023-04-06T07:20:24;1.15;;;0.82;;
51995;SDS011;38010;53.264;6.592;2023-04-06T07:22:50;1.85;;;0.73;;
51995;SDS011;38010;53.264;6.592;2023-04-06T07:25:16;1.33;;;0.77;;
51995;SDS011;38010;53.264;6.592;2023-04-06T07:27:41;0.90;;;0.88;;
51995;SDS011;38010;53.264;6.592;2023-04-06T07:30:07;1.13;;;0.93;;
51995;SDS011;38010;53.264;6.592;2023-04-06T07:32:33;1.20;;;0.90;;
51995;SDS011;38010;53.264;6.592;2023-04-06T07:35:00;1.08;;;0.85;;
51995;SDS011;38010;53.264;6.592;2023-04-06T07:37:26;1.25;;;0.85;;
51995;SDS011;38010;53.264;6.592;2023-04-06T07:39:52;1.08;;;0.70;;
51995;SDS011;38010;53.264;6.592;2023-04-06T07:42:18;1.10;;;1.00;;
51995;SDS011;38010;53.264;6.592;2023-04-06T07:44:43;1.10;;;0.90;;
51995;SDS011;38010;53.264;6.592;2023-04-06T07:47:09;0.80;;;0.70;;
51995;SDS011;38010;53.264;6.592;2023-04-06T07:49:35;1.00;;;0.80;;
51995;SDS011;38010;53.264;6.592;2023-04-06T07:52:01;0.68;;;0.68;;
51995;SDS011;38010;53.264;6.592;2023-04-06T07:54:28;0.85;;;0.80;;
51995;SDS011;38010;53.264;6.592;2023-04-06T07:56:53;1.30;;;0.85;;
51995;SDS011;38010;53.264;6.592;2023-04-06T07:59:19;0.80;;;0.80;;
51995;SDS011;38010;53.264;6.592;2023-04-06T08:01:45;0.75;;;0.73;;
51995;SDS011;38010;53.264;6.592;2023-04-06T08:04:11;0.90;;;0.88;;
51995;SDS011;38010;53.264;6.592;2023-04-06T08:06:36;0.93;;;0.75;;
51995;SDS011;38010;53.264;6.592;2023-04-06T08:09:02;0.80;;;0.73;;
51995;SDS011;38010;53.264;6.592;2023-04-06T08:11:28;0.60;;;0.60;;
51995;SDS011;38010;53.264;6.592;2023-04-06T08:13:54;0.70;;;0.70;;
51995;SDS011;38010;53.264;6.592;2023-04-06T08:16:23;1.10;;;0.80;;
51995;SDS011;38010;53.264;6.592;2023-04-06T08:18:49;1.10;;;0.90;;
51995;SDS011;38010;53.264;6.592;2023-04-06T08:21:15;1.02;;;0.70;;
51995;SDS011;38010;53.264;6.592;2023-04-06T08:23:41;0.80;;;0.80;;
51995;SDS011;38010;53.264;6.592;2023-04-06T08:26:06;1.27;;;0.80;;
51995;SDS011;38010;53.264;6.592;2023-04-06T08:28:32;0.75;;;0.70;;
51995;SDS011;38010;53.264;6.592;2023-04-06T08:31:02;0.90;;;0.70;;
51995;SDS011;38010;53.264;6.592;2023-04-06T08:33:31;0.90;;;0.75;;
51995;SDS011;38010;53.264;6.592;2023-04-06T08:36:05;0.73;;;0.70;;
51995;SDS011;38010;53.264;6.592;2023-04-06T08:38:32;1.00;;;0.80;;
51995;SDS011;38010;53.264;6.592;2023-04-06T08:40:58;0.70;;;0.70;;
51995;SDS011;38010;53.264;6.592;2023-04-06T08:43:24;1.70;;;0.90;;
51995;SDS011;38010;53.264;6.592;2023-04-06T08:45:51;1.13;;;1.02;;
51995;SDS011;38010;53.264;6.592;2023-04-06T08:48:17;1.23;;;0.80;;
51995;SDS011;38010;53.264;6.592;2023-04-06T08:50:43;1.17;;;0.80;;
51995;SDS011;38010;53.264;6.592;2023-04-06T08:53:10;1.02;;;0.80;;
51995;SDS011;38010;53.264;6.592;2023-04-06T08:55:37;1.13;;;0.95;;
51995;SDS011;38010;53.264;6.592;2023-04-06T08:58:03;0.80;;;0.75;;
51995;SDS011;38010;53.264;6.592;2023-04-06T09:00:33;1.40;;;0.95;;
51995;SDS011;38010;53.264;6.592;2023-04-06T09:03:03;1.27;;;0.85;;
51995;SDS011;38010;53.264;6.592;2023-04-06T09:05:30;1.85;;;0.90;;
51995;SDS011;38010;53.264;6.592;2023-04-06T09:07:56;1.20;;;0.90;;
51995;SDS011;38010;53.264;6.592;2023-04-06T09:10:22;0.90;;;0.80;;
51995;SDS011;38010;53.264;6.592;2023-04-06T09:12:50;1.20;;;0.70;;
51995;SDS011;38010;53.264;6.592;2023-04-06T09:15:19;1.17;;;1.00;;
51995;SDS011;38010;53.264;6.592;2023-04-06T09:17:46;0.77;;;0.63;;
51995;SDS011;38010;53.264;6.592;2023-04-06T09:20:12;1.35;;;0.88;;
51995;SDS011;38010;53.264;6.592;2023-04-06T09:22:38;0.82;;;0.80;;
51995;SDS011;38010;53.264;6.592;2023-04-06T09:25:05;1.20;;;0.93;;
51995;SDS011;38010;53.264;6.592;2023-04-06T09:27:32;0.77;;;0.70;;
51995;SDS011;38010;53.264;6.592;2023-04-06T09:30:03;1.35;;;0.85;;
51995;SDS011;38010;53.264;6.592;2023-04-06T09:32:30;2.03;;;0.93;;
51995;SDS011;38010;53.264;6.592;2023-04-06T09:35:06;1.35;;;1.00;;
51995;SDS011;38010;53.264;6.592;2023-04-06T09:37:32;0.75;;;0.60;;
51995;SDS011;38010;53.264;6.592;2023-04-06T09:40:05;0.73;;;0.70;;
51995;SDS011;38010;53.264;6.592;2023-04-06T09:42:32;0.75;;;0.70;;
51995;SDS011;38010;53.264;6.592;2023-04-06T09:44:59;0.80;;;0.75;;
51995;SDS011;38010;53.264;6.592;2023-04-06T09:47:25;0.75;;;0.60;;
51995;SDS011;38010;53.264;6.592;2023-04-06T09:49:53;1.60;;;1.10;;
51995;SDS011;38010;53.264;6.592;2023-04-06T09:52:24;1.42;;;1.15;;
51995;SDS011;38010;53.264;6.592;2023-04-06T09:55:07;0.68;;;0.68;;
51995;SDS011;38010;53.264;6.592;2023-04-06T09:57:37;1.45;;;0.88;;
51995;SDS011;38010;53.264;6.592;2023-04-06T10:00:11;1.15;;;0.93;;
51995;SDS011;38010;53.264;6.592;2023-04-06T10:08:11;0.80;;;0.80;;
51995;SDS011;38010;53.264;6.592;2023-04-06T10:10:38;1.02;;;0.90;;
51995;SDS011;38010;53.264;6.592;2023-04-06T10:13:04;1.00;;;0.88;;
51995;SDS011;38010;53.264;6.592;2023-04-06T10:15:30;1.00;;;0.90;;
51995;SDS011;38010;53.264;6.592;2023-04-06T10:17:57;1.67;;;0.90;;
51995;SDS011;38010;53.264;6.592;2023-04-06T10:23:09;0.75;;;0.70;;
51995;SDS011;38010;53.264;6.592;2023-04-06T10:25:55;1.13;;;0.77;;
51995;SDS011;38010;53.264;6.592;2023-04-06T10:28:22;1.17;;;0.77;;
51995;SDS011;38010;53.264;6.592;2023-04-06T10:30:49;1.00;;;0.90;;
51995;SDS011;38010;53.264;6.592;2023-04-06T10:33:21;1.10;;;0.87;;
51995;SDS011;38010;53.264;6.592;2023-04-06T10:35:47;1.23;;;0.82;;
51995;SDS011;38010;53.264;6.592;2023-04-06T10:38:12;1.55;;;1.08;;
51995;SDS011;38010;53.264;6.592;2023-04-06T10:40:40;1.25;;;0.88;;
51995;SDS011;38010;53.264;6.592;2023-04-06T10:43:10;1.67;;;0.93;;
51995;SDS011;38010;53.264;6.592;2023-04-06T10:45:37;1.23;;;0.80;;
51995;SDS011;38010;53.264;6.592;2023-04-06T10:48:13;1.10;;;0.90;;
51995;SDS011;38010;53.264;6.592;2023-04-06T10:50:41;1.30;;;0.82;;
51995;SDS011;38010;53.264;6.592;2023-04-06T10:53:08;0.80;;;0.80;;
51995;SDS011;38010;53.264;6.592;2023-04-06T10:55:34;1.05;;;0.95;;
51995;SDS011;38010;53.264;6.592;2023-04-06T10:58:08;1.85;;;1.13;;
51995;SDS011;38010;53.264;6.592;2023-04-06T11:00:34;1.08;;;0.98;;
51995;SDS011;38010;53.264;6.592;2023-04-06T11:03:01;1.23;;;1.00;;
51995;SDS011;38010;53.264;6.592;2023-04-06T11:05:27;1.40;;;1.08;;
51995;SDS011;38010;53.264;6.592;2023-04-06T11:07:53;1.20;;;1.00;;
51995;SDS011;38010;53.264;6.592;2023-04-06T11:10:22;0.80;;;0.80;;
51995;SDS011;38010;53.264;6.592;2023-04-06T11:12:54;1.88;;;0.90;;
51995;SDS011;38010;53.264;6.592;2023-04-06T11:15:20;1.70;;;1.20;;
51995;SDS011;38010;53.264;6.592;2023-04-06T11:17:46;1.30;;;0.90;;
51995;SDS011;38010;53.264;6.592;2023-04-06T11:20:11;1.60;;;0.90;;
51995;SDS011;38010;53.264;6.592;2023-04-06T11:22:50;1.30;;;0.90;;
51995;SDS011;38010;53.264;6.592;2023-04-06T11:25:16;1.45;;;0.98;;
51995;SDS011;38010;53.264;6.592;2023-04-06T11:27:43;1.02;;;0.90;;
51995;SDS011;38010;53.264;6.592;2023-04-06T11:30:09;1.00;;;0.90;;
51995;SDS011;38010;53.264;6.592;2023-04-06T11:32:39;1.77;;;1.30;;
51995;SDS011;38010;53.264;6.592;2023-04-06T11:35:07;1.17;;;0.90;;
51995;SDS011;38010;53.264;6.592;2023-04-06T11:37:36;1.60;;;1.00;;
51995;SDS011;38010;53.264;6.592;2023-04-06T11:40:02;1.10;;;1.00;;
51995;SDS011;38010;53.264;6.592;2023-04-06T11:42:28;2.13;;;1.00;;
51995;SDS011;38010;53.264;6.592;2023-04-06T11:44:58;1.40;;;1.20;;
51995;SDS011;38010;53.264;6.592;2023-04-06T11:47:30;1.17;;;1.02;;
51995;SDS011;38010;53.264;6.592;2023-04-06T11:50:09;1.55;;;0.90;;
51995;SDS011;38010;53.264;6.592;2023-04-06T11:52:36;1.20;;;0.98;;
51995;SDS011;38010;53.264;6.592;2023-04-06T11:55:16;1.75;;;1.27;;
51995;SDS011;38010;53.264;6.592;2023-04-06T11:57:43;2.20;;;1.35;;
51995;SDS011;38010;53.264;6.592;2023-04-06T12:00:10;1.55;;;1.25;;
51995;SDS011;38010;53.264;6.592;2023-04-06T12:02:36;1.73;;;1.48;;
51995;SDS011;38010;53.264;6.592;2023-04-06T12:05:03;1.55;;;1.20;;
51995;SDS011;38010;53.264;6.592;2023-04-06T12:07:30;1.35;;;1.10;;
51995;SDS011;38010;53.264;6.592;2023-04-06T12:09:56;1.50;;;1.27;;
51995;SDS011;38010;53.264;6.592;2023-04-06T12:12:22;1.60;;;1.30;;
51995;SDS011;38010;53.264;6.592;2023-04-06T12:14:47;2.40;;;1.48;;
51995;SDS011;38010;53.264;6.592;2023-04-06T12:17:13;1.25;;;1.08;;
51995;SDS011;38010;53.264;6.592;2023-04-06T12:19:39;1.63;;;1.30;;
51995;SDS011;38010;53.264;6.592;2023-04-06T12:22:05;1.30;;;1.20;;
51995;SDS011;38010;53.264;6.592;2023-04-06T12:24:31;1.80;;;1.52;;
51995;SDS011;38010;53.264;6.592;2023-04-06T12:26:57;2.05;;;1.55;;
51995;SDS011;38010;53.264;6.592;2023-04-06T12:29:23;2.45;;;1.83;;
51995;SDS011;38010;53.264;6.592;2023-04-06T12:31:50;1.88;;;1.35;;
51995;SDS011;38010;53.264;6.592;2023-04-06T12:34:16;1.85;;;1.60;;
51995;SDS011;38010;53.264;6.592;2023-04-06T12:36:42;1.73;;;1.58;;
51995;SDS011;38010;53.264;6.592;2023-04-06T12:39:07;2.40;;;1.90;;
51995;SDS011;38010;53.264;6.592;2023-04-06T12:41:33;1.70;;;1.35;;
51995;SDS011;38010;53.264;6.592;2023-04-06T12:43:59;1.55;;;1.45;;
51995;SDS011;38010;53.264;6.592;2023-04-06T12:46:25;1.98;;;1.63;;
51995;SDS011;38010;53.264;6.592;2023-04-06T12:48:52;2.40;;;1.83;;
51995;SDS011;38010;53.264;6.592;2023-04-06T12:51:21;1.50;;;1.40;;
51995;SDS011;38010;53.264;6.592;2023-04-06T12:53:47;1.40;;;1.30;;
51995;SDS011;38010;53.264;6.592;2023-04-06T12:56:13;2.72;;;1.80;;
51995;SDS011;38010;53.264;6.592;2023-04-06T12:58:40;2.83;;;2.00;;
51995;SDS011;38010;53.264;6.592;2023-04-06T13:01:07;2.88;;;1.88;;
51995;SDS011;38010;53.264;6.592;2023-04-06T13:03:33;2.08;;;1.50;;
51995;SDS011;38010;53.264;6.592;2023-04-06T13:05:59;2.38;;;1.92;;
51995;SDS011;38010;53.264;6.592;2023-04-06T13:08:26;2.38;;;1.42;;
51995;SDS011;38010;53.264;6.592;2023-04-06T13:10:52;1.55;;;1.45;;
51995;SDS011;38010;53.264;6.592;2023-04-06T13:13:25;2.55;;;1.80;;
51995;SDS011;38010;53.264;6.592;2023-04-06T13:15:53;1.92;;;1.27;;
51995;SDS011;38010;53.264;6.592;2023-04-06T13:18:20;2.35;;;1.85;;
51995;SDS011;38010;53.264;6.592;2023-04-06T13:20:48;2.38;;;1.90;;
51995;SDS011;38010;53.264;6.592;2023-04-06T13:23:14;1.92;;;1.58;;
51995;SDS011;38010;53.264;6.592;2023-04-06T13:25:41;2.03;;;1.73;;
51995;SDS011;38010;53.264;6.592;2023-04-06T13:28:07;2.58;;;1.80;;
51995;SDS011;38010;53.264;6.592;2023-04-06T13:30:33;2.53;;;2.05;;
51995;SDS011;38010;53.264;6.592;2023-04-06T13:32:59;3.28;;;2.03;;
51995;SDS011;38010;53.264;6.592;2023-04-06T13:35:25;2.20;;;1.63;;
51995;SDS011;38010;53.264;6.592;2023-04-06T13:37:51;2.30;;;1.90;;
51995;SDS011;38010;53.264;6.592;2023-04-06T13:40:17;2.25;;;1.70;;
51995;SDS011;38010;53.264;6.592;2023-04-06T13:42:43;2.15;;;1.90;;
51995;SDS011;38010;53.264;6.592;2023-04-06T13:45:10;2.38;;;1.95;;
51995;SDS011;38010;53.264;6.592;2023-04-06T13:47:36;2.13;;;1.73;;
51995;SDS011;38010;53.264;6.592;2023-04-06T13:50:02;1.70;;;1.42;;
51995;SDS011;38010;53.264;6.592;2023-04-06T13:52:28;1.98;;;1.70;;
51995;SDS011;38010;53.264;6.592;2023-04-06T13:54:54;2.10;;;1.90;;
51995;SDS011;38010;53.264;6.592;2023-04-06T13:57:20;2.47;;;1.77;;
51995;SDS011;38010;53.264;6.592;2023-04-06T13:59:46;2.25;;;1.98;;
51995;SDS011;38010;53.264;6.592;2023-04-06T14:02:12;2.83;;;1.92;;
51995;SDS011;38010;53.264;6.592;2023-04-06T14:04:39;3.25;;;2.40;;
51995;SDS011;38010;53.264;6.592;2023-04-06T14:07:05;3.80;;;2.30;;
51995;SDS011;38010;53.264;6.592;2023-04-06T14:09:32;2.60;;;1.83;;
51995;SDS011;38010;53.264;6.592;2023-04-06T14:11:58;1.58;;;1.33;;
51995;SDS011;38010;53.264;6.592;2023-04-06T14:14:24;2.95;;;2.00;;
51995;SDS011;38010;53.264;6.592;2023-04-06T14:16:50;1.90;;;1.60;;
51995;SDS011;38010;53.264;6.592;2023-04-06T14:19:17;3.20;;;1.92;;
51995;SDS011;38010;53.264;6.592;2023-04-06T14:21:45;2.25;;;1.60;;
51995;SDS011;38010;53.264;6.592;2023-04-06T14:24:12;2.15;;;1.95;;
51995;SDS011;38010;53.264;6.592;2023-04-06T14:26:38;1.90;;;1.65;;
51995;SDS011;38010;53.264;6.592;2023-04-06T14:29:06;2.60;;;1.90;;
51995;SDS011;38010;53.264;6.592;2023-04-06T14:31:32;2.35;;;1.90;;
51995;SDS011;38010;53.264;6.592;2023-04-06T14:34:00;1.90;;;1.67;;
51995;SDS011;38010;53.264;6.592;2023-04-06T14:36:27;2.13;;;1.80;;
51995;SDS011;38010;53.264;6.592;2023-04-06T14:38:54;2.08;;;1.85;;
51995;SDS011;38010;53.264;6.592;2023-04-06T14:41:23;2.22;;;1.77;;
51995;SDS011;38010;53.264;6.592;2023-04-06T14:43:50;1.90;;;1.35;;
51995;SDS011;38010;53.264;6.592;2023-04-06T14:46:17;1.63;;;1.30;;
51995;SDS011;38010;53.264;6.592;2023-04-06T14:48:43;1.52;;;1.30;;
51995;SDS011;38010;53.264;6.592;2023-04-06T14:51:12;2.20;;;1.60;;
51995;SDS011;38010;53.264;6.592;2023-04-06T14:53:38;2.42;;;1.60;;